createdAt,value
2022-08-05T00:01:28.570Z,20.72
2022-08-05T00:04:31.358Z,20.71
2022-08-05T00:08:00.291Z,20.53
2022-08-05T00:11:03.190Z,20.57
2022-08-05T00:14:12.895Z,20.57
2022-08-05T00:17:19.429Z,20.53
2022-08-05T00:20:22.084Z,20.55
2022-08-05T00:23:46.934Z,20.55
2022-08-05T00:26:53.693Z,20.49
2022-08-05T00:29:56.371Z,20.47
2022-08-05T00:32:58.478Z,20.47
2022-08-05T00:36:14.901Z,20.45
2022-08-05T00:39:18.759Z,20.41
2022-08-05T00:42:32.525Z,20.33
2022-08-05T00:45:42.742Z,20.30
2022-08-05T00:48:51.106Z,20.29
2022-08-05T00:51:53.340Z,20.27
2022-08-05T00:54:55.302Z,20.26
2022-08-05T00:57:59.344Z,20.22
2022-08-05T01:01:01.596Z,20.20
2022-08-05T01:04:14.362Z,20.19
2022-08-05T01:07:18.072Z,20.13
2022-08-05T01:10:22.293Z,20.05
2022-08-05T01:13:57.536Z,20.05
2022-08-05T01:17:10.243Z,20.03
2022-08-05T01:20:31.015Z,19.97
2022-08-05T01:23:53.046Z,19.94
2022-08-05T01:27:19.451Z,19.87
2022-08-05T01:30:34.727Z,19.81
2022-08-05T01:33:49.105Z,19.80
2022-08-05T01:37:04.350Z,19.78
2022-08-05T01:40:07.412Z,19.68
2022-08-05T01:43:22.288Z,19.73
2022-08-05T01:46:42.624Z,19.72
2022-08-05T01:50:01.835Z,19.72
2022-08-05T01:53:09.938Z,19.74
2022-08-05T01:58:10.898Z,19.72
2022-08-05T01:59:40.946Z,19.75
2022-08-05T02:02:55.368Z,19.75
2022-08-05T02:05:57.833Z,19.73
2022-08-05T02:09:02.294Z,19.73
2022-08-05T02:12:10.034Z,19.70
2022-08-05T02:15:36.854Z,19.75
2022-08-05T02:18:50.510Z,19.76
2022-08-05T02:22:26.419Z,19.77
2022-08-05T02:25:48.905Z,19.78
2022-08-05T02:28:54.823Z,19.78
2022-08-05T02:32:04.573Z,19.77
2022-08-05T02:35:14.130Z,19.76
2022-08-05T02:38:19.392Z,19.73
2022-08-05T02:41:28.871Z,19.76
2022-08-05T02:44:39.946Z,19.80
2022-08-05T02:48:07.341Z,19.82
2022-08-05T02:51:09.289Z,19.83
2022-08-05T02:54:36.483Z,19.84
2022-08-05T02:58:10.221Z,19.87
2022-08-05T03:01:02.851Z,19.90
2022-08-05T03:04:15.890Z,19.95
2022-08-05T03:07:40.462Z,19.99
2022-08-05T03:11:53.234Z,20.03
2022-08-05T03:14:08.241Z,20.08
2022-08-05T03:17:10.309Z,20.13
2022-08-05T03:20:13.588Z,20.11
2022-08-05T03:23:16.076Z,20.17
2022-08-05T03:26:31.435Z,20.24
2022-08-05T03:29:44.495Z,20.28
2022-08-05T03:32:57.017Z,20.30
2022-08-05T03:35:59.834Z,20.30
2022-08-05T03:39:07.807Z,20.35
2022-08-05T03:42:09.869Z,20.37
2022-08-05T03:45:22.108Z,20.45
2022-08-05T03:48:25.220Z,20.49
2022-08-05T03:52:38.944Z,20.50
2022-08-05T03:56:04.691Z,20.59
2022-08-05T03:58:29.249Z,20.69
2022-08-05T04:01:32.917Z,20.76
2022-08-05T04:04:35.885Z,20.88
2022-08-05T04:07:57.338Z,20.98
2022-08-05T04:11:01.943Z,21.07
2022-08-05T04:14:04.933Z,21.11
2022-08-05T04:17:09.413Z,21.09
2022-08-05T04:20:23.975Z,21.13
2022-08-05T04:24:04.765Z,21.07
2022-08-05T04:26:50.183Z,21.12
2022-08-05T04:29:52.222Z,21.26
2022-08-05T04:32:54.623Z,21.29
2022-08-05T04:36:10.871Z,21.38
2022-08-05T04:39:19.883Z,21.47
2022-08-05T04:42:25.340Z,21.56
2022-08-05T04:45:47.773Z,21.81
2022-08-05T04:48:49.419Z,21.97
2022-08-05T04:52:00.197Z,22.14
2022-08-05T04:55:09.604Z,22.38
2022-08-05T04:58:21.560Z,22.60
2022-08-05T05:01:33.660Z,22.70
2022-08-05T05:04:49.825Z,22.91
2022-08-05T05:07:56.062Z,23.10
2022-08-05T05:10:58.645Z,23.32
2022-08-05T05:14:01.069Z,23.50
2022-08-05T05:17:07.517Z,23.71
2022-08-05T05:20:13.342Z,23.81
2022-08-05T05:23:19.780Z,24.07
2022-08-05T05:26:28.727Z,24.25
2022-08-05T05:29:40.912Z,24.45
2022-08-05T05:32:56.809Z,24.54
2022-08-05T05:35:58.768Z,24.71
2022-08-05T05:39:03.779Z,24.71
2022-08-05T05:42:06.457Z,24.97
2022-08-05T05:45:09.406Z,25.26
2022-08-05T05:48:11.767Z,25.43
2022-08-05T05:51:22.683Z,25.70
2022-08-05T05:54:50.487Z,25.85
2022-08-05T05:57:52.881Z,25.97
2022-08-05T06:00:55.032Z,26.06
2022-08-05T06:04:01.861Z,26.20
2022-08-05T06:07:05.933Z,26.35
2022-08-05T06:10:10.468Z,26.50
2022-08-05T06:13:13.022Z,26.64
2022-08-05T06:16:29.866Z,26.68
2022-08-05T06:19:35.593Z,26.85
2022-08-05T06:22:37.882Z,26.90
2022-08-05T06:26:13.050Z,26.86
2022-08-05T06:29:23.617Z,26.98
2022-08-05T06:32:28.794Z,27.28
2022-08-05T06:36:07.370Z,27.49
2022-08-05T06:38:54.879Z,27.09
2022-08-05T06:42:04.156Z,27.24
2022-08-05T06:45:08.488Z,27.43
2022-08-05T06:48:44.358Z,27.39
2022-08-05T06:51:33.266Z,27.29
2022-08-05T06:54:35.983Z,27.28
2022-08-05T06:57:57.340Z,27.22
2022-08-05T07:01:01.733Z,27.24
2022-08-05T07:04:03.946Z,27.26
2022-08-05T07:07:08.049Z,27.46
2022-08-05T07:10:10.438Z,27.67
2022-08-05T07:13:56.835Z,27.65
2022-08-05T07:18:08.338Z,27.85
2022-08-05T07:20:39.019Z,28.08
2022-08-05T07:23:49.913Z,28.11
2022-08-05T07:26:52.539Z,28.02
2022-08-05T07:30:22.741Z,27.78
2022-08-05T07:33:37.002Z,27.49
2022-08-05T07:36:40.028Z,27.26
2022-08-05T07:40:04.238Z,27.02
2022-08-05T07:43:20.503Z,26.81
2022-08-05T07:46:25.403Z,26.86
2022-08-05T07:49:27.982Z,27.25
2022-08-05T07:52:30.553Z,27.72
2022-08-05T07:56:04.637Z,28.15
2022-08-05T07:58:58.997Z,28.49
2022-08-05T08:02:03.151Z,28.90
2022-08-05T08:05:05.712Z,29.22
2022-08-05T08:08:07.702Z,29.46
2022-08-05T08:11:16.129Z,29.55
2022-08-05T08:14:19.116Z,29.61
2022-08-05T08:17:22.784Z,29.62
2022-08-05T08:21:00.033Z,29.68
2022-08-05T08:24:00.969Z,29.79
2022-08-05T08:27:09.211Z,30.05
2022-08-05T08:30:28.623Z,30.25
2022-08-05T08:33:38.063Z,30.24
2022-08-05T08:36:48.856Z,30.19
2022-08-05T08:39:54.550Z,30.27
2022-08-05T08:42:56.915Z,30.49
2022-08-05T08:46:19.401Z,30.69
2022-08-05T08:50:18.092Z,31.04
2022-08-05T08:52:54.261Z,31.02
2022-08-05T08:56:05.070Z,30.99
2022-08-05T08:59:19.267Z,30.70
2022-08-05T09:02:22.615Z,30.46
2022-08-05T09:05:38.825Z,30.21
2022-08-05T09:08:50.730Z,29.98
2022-08-05T09:11:55.329Z,29.90
2022-08-05T09:15:06.622Z,29.81
2022-08-05T09:18:10.163Z,29.55
2022-08-05T09:21:21.286Z,29.00
2022-08-05T09:24:44.863Z,28.79
2022-08-05T09:28:04.024Z,28.77
2022-08-05T09:31:22.637Z,28.84
2022-08-05T09:34:56.466Z,28.88
2022-08-05T09:38:18.485Z,29.00
2022-08-05T09:41:22.450Z,29.51
2022-08-05T09:44:50.458Z,30.07
2022-08-05T09:47:56.093Z,30.44
2022-08-05T09:51:15.178Z,30.75
2022-08-05T09:54:34.164Z,30.89
2022-08-05T09:57:54.688Z,31.14
2022-08-05T10:01:15.295Z,31.18
2022-08-05T10:04:41.116Z,31.24
2022-08-05T10:08:36.053Z,31.33
2022-08-05T10:11:15.741Z,31.41
2022-08-05T10:14:22.829Z,31.57
2022-08-05T10:17:39.248Z,31.46
2022-08-05T10:20:57.332Z,31.59
2022-08-05T10:24:00.779Z,31.67
2022-08-05T10:27:03.871Z,31.73
2022-08-05T10:32:48.228Z,31.78
2022-08-05T10:33:35.295Z,31.82
2022-08-05T10:36:40.940Z,31.74
2022-08-05T10:39:59.492Z,31.56
2022-08-05T10:43:41.886Z,31.24
2022-08-05T10:46:46.841Z,30.81
2022-08-05T10:50:32.590Z,30.37
2022-08-05T10:54:01.774Z,30.05
2022-08-05T10:57:08.148Z,30.09
2022-08-05T11:00:24.157Z,30.44
2022-08-05T11:03:29.755Z,30.70
2022-08-05T11:06:34.190Z,30.76
2022-08-05T11:09:50.643Z,30.99
2022-08-05T11:13:06.966Z,30.99
2022-08-05T11:16:23.146Z,31.08
2022-08-05T11:20:10.754Z,31.02
2022-08-05T11:23:33.198Z,30.68
2022-08-05T11:26:50.389Z,30.37
2022-08-05T11:30:01.533Z,30.70
2022-08-05T11:33:34.754Z,30.78
2022-08-05T11:36:57.689Z,30.89
2022-08-05T11:40:06.070Z,30.65
2022-08-05T11:43:08.742Z,30.56
2022-08-05T11:46:23.416Z,30.70
2022-08-05T11:49:34.421Z,30.43
2022-08-05T11:52:37.113Z,30.18
2022-08-05T11:55:53.740Z,30.11
2022-08-05T11:58:58.684Z,30.17
2022-08-05T12:02:24.295Z,30.50
2022-08-05T12:05:36.041Z,30.63
2022-08-05T12:08:50.072Z,30.57
2022-08-05T12:11:57.508Z,30.31
2022-08-05T12:15:01.856Z,30.11
2022-08-05T12:18:10.728Z,30.18
2022-08-05T12:21:20.541Z,30.08
2022-08-05T12:24:24.649Z,30.35
2022-08-05T12:27:32.818Z,30.51
2022-08-05T12:30:38.638Z,30.58
2022-08-05T12:33:48.693Z,30.64
2022-08-05T12:36:53.797Z,30.56
2022-08-05T12:39:57.322Z,30.23
2022-08-05T12:43:08.752Z,30.11
2022-08-05T12:46:29.448Z,30.35
2022-08-05T12:50:03.698Z,30.53
2022-08-05T12:53:07.610Z,30.76
2022-08-05T12:56:35.340Z,30.62
2022-08-05T13:01:57.369Z,30.41
2022-08-05T13:03:13.480Z,30.09
2022-08-05T13:06:20.552Z,29.87
2022-08-05T13:09:28.337Z,29.68
2022-08-05T13:12:31.009Z,29.47
2022-08-05T13:15:42.220Z,29.34
2022-08-05T13:18:58.802Z,29.18
2022-08-05T13:22:04.201Z,29.19
2022-08-05T13:25:18.807Z,29.25
2022-08-05T13:28:21.938Z,29.26
2022-08-05T13:32:03.486Z,29.20
2022-08-05T13:34:51.054Z,29.19
2022-08-05T13:37:55.741Z,29.19
2022-08-05T13:41:00.383Z,29.29
2022-08-05T13:44:04.178Z,29.43
2022-08-05T13:47:09.732Z,29.62
2022-08-05T13:50:16.555Z,29.93
2022-08-05T13:53:18.917Z,30.28
2022-08-05T13:56:21.028Z,30.50
2022-08-05T13:59:25.329Z,30.63
2022-08-05T14:02:29.851Z,30.56
2022-08-05T14:06:04.721Z,30.46
2022-08-05T14:08:56.457Z,30.41
2022-08-05T14:12:17.071Z,30.16
2022-08-05T14:16:05.437Z,29.88
2022-08-05T14:18:41.935Z,29.63
2022-08-05T14:22:09.531Z,29.44
2022-08-05T14:25:21.917Z,29.18
2022-08-05T14:28:26.479Z,28.86
2022-08-05T14:32:03.805Z,28.75
2022-08-05T14:34:51.724Z,28.56
2022-08-05T14:37:55.402Z,28.43
2022-08-05T14:40:58.818Z,28.30
2022-08-05T14:44:09.633Z,28.15
2022-08-05T14:48:02.495Z,27.93
2022-08-05T14:50:44.782Z,27.87
2022-08-05T14:54:25.854Z,27.77
2022-08-05T14:57:13.578Z,27.78
2022-08-05T15:00:15.831Z,27.69
2022-08-05T15:03:22.980Z,27.75
2022-08-05T15:06:27.923Z,27.91
2022-08-05T15:09:51.305Z,28.06
2022-08-05T15:13:00.816Z,28.21
2022-08-05T15:16:06.038Z,28.37
2022-08-05T15:19:14.570Z,28.36
2022-08-05T15:22:27.182Z,28.15
2022-08-05T15:25:50.910Z,27.99
2022-08-05T15:28:53.189Z,27.87
2022-08-05T15:31:55.135Z,27.68
2022-08-05T15:34:57.944Z,27.56
2022-08-05T15:38:34.388Z,27.49
2022-08-05T15:41:57.412Z,27.43
2022-08-05T15:44:49.501Z,27.28
2022-08-05T15:47:54.351Z,27.20
2022-08-05T15:51:05.595Z,27.11
2022-08-05T15:54:08.485Z,27.03
2022-08-05T15:57:10.872Z,26.91
2022-08-05T16:00:16.682Z,26.91
2022-08-05T16:03:18.823Z,26.83
2022-08-05T16:06:22.839Z,26.68
2022-08-05T16:09:25.381Z,26.74
2022-08-05T16:12:27.429Z,26.67
2022-08-05T16:15:32.270Z,26.64
2022-08-05T16:18:34.765Z,26.62
2022-08-05T16:22:01.004Z,26.62
2022-08-05T16:25:09.496Z,26.58
2022-08-05T16:28:13.765Z,26.53
2022-08-05T16:31:56.818Z,26.48
2022-08-05T16:34:55.697Z,26.40
2022-08-05T16:38:15.022Z,26.22
2022-08-05T16:41:21.606Z,26.12
2022-08-05T16:44:44.793Z,26.02
2022-08-05T16:47:59.661Z,25.94
2022-08-05T16:51:09.661Z,25.88
2022-08-05T16:54:16.114Z,25.86
2022-08-05T16:57:39.890Z,25.77
2022-08-05T17:00:48.219Z,25.72
2022-08-05T17:03:52.020Z,25.68
2022-08-05T17:06:55.626Z,25.63
2022-08-05T17:09:59.383Z,25.55
2022-08-05T17:13:01.308Z,25.57
2022-08-05T17:16:26.767Z,25.53
2022-08-05T17:19:28.577Z,25.46
2022-08-05T17:22:32.713Z,25.42
2022-08-05T17:25:40.407Z,25.33
2022-08-05T17:28:42.918Z,25.31
2022-08-05T17:31:58.222Z,25.27
2022-08-05T17:35:01.310Z,25.20
2022-08-05T17:38:08.180Z,25.17
2022-08-05T17:41:11.746Z,25.11
2022-08-05T17:44:32.728Z,25.07
2022-08-05T17:47:34.979Z,24.99
2022-08-05T17:50:38.375Z,24.97
2022-08-05T17:53:40.320Z,24.94
2022-08-05T17:56:44.688Z,24.90
2022-08-05T18:00:03.382Z,24.88
2022-08-05T18:03:08.707Z,24.99
2022-08-05T18:06:15.170Z,25.24
2022-08-05T18:09:17.701Z,25.37
2022-08-05T18:12:24.042Z,25.42
2022-08-05T18:15:27.757Z,25.42
2022-08-05T18:18:34.008Z,25.54
2022-08-05T18:22:09.379Z,25.62
2022-08-05T18:25:05.529Z,25.61
2022-08-05T18:28:10.291Z,25.68
2022-08-05T18:31:12.742Z,25.71
2022-08-05T18:34:21.737Z,25.66
2022-08-05T18:37:33.542Z,25.64
2022-08-05T18:41:53.616Z,25.59
2022-08-05T18:44:06.537Z,25.60
2022-08-05T18:47:12.207Z,25.64
2022-08-05T18:50:42.167Z,25.60
2022-08-05T18:53:50.475Z,25.64
2022-08-05T18:56:52.926Z,25.75
2022-08-05T19:00:02.354Z,25.85
2022-08-05T19:03:06.146Z,25.83
2022-08-05T19:06:19.181Z,25.80
2022-08-05T19:09:25.371Z,25.83
2022-08-05T19:12:32.731Z,25.83
2022-08-05T19:15:58.949Z,25.77
2022-08-05T19:18:58.782Z,25.74
2022-08-05T19:22:02.181Z,25.69
2022-08-05T19:25:06.184Z,25.64
2022-08-05T19:28:10.444Z,25.50
2022-08-05T19:31:13.506Z,25.33
2022-08-05T19:34:18.800Z,25.32
2022-08-05T19:37:35.207Z,25.35
2022-08-05T19:40:47.516Z,25.31
2022-08-05T19:44:07.046Z,25.36
2022-08-05T19:47:16.130Z,25.39
2022-08-05T19:50:20.135Z,25.45
2022-08-05T19:54:04.307Z,25.46
2022-08-05T19:56:47.639Z,25.36
2022-08-05T20:00:01.840Z,25.28
2022-08-05T20:03:13.859Z,25.31
2022-08-05T20:06:29.368Z,25.31
2022-08-05T20:09:54.102Z,25.33
2022-08-05T20:12:55.086Z,25.18
2022-08-05T20:15:58.387Z,25.24
2022-08-05T20:19:03.463Z,25.13
2022-08-05T20:22:09.709Z,24.93
2022-08-05T20:25:12.591Z,24.83
2022-08-05T20:28:15.642Z,24.86
2022-08-05T20:31:21.670Z,24.73
2022-08-05T20:34:24.956Z,24.63
2022-08-05T20:38:05.891Z,24.68
2022-08-05T20:40:50.516Z,24.75
2022-08-05T20:43:59.876Z,24.59
2022-08-05T20:47:06.750Z,24.28
2022-08-05T20:50:11.453Z,24.30
2022-08-05T20:53:16.015Z,24.26
2022-08-05T20:56:41.984Z,24.32
2022-08-05T21:00:11.056Z,24.35
2022-08-05T21:03:08.331Z,24.35
2022-08-05T21:06:27.884Z,24.18
2022-08-05T21:09:30.705Z,24.10
2022-08-05T21:12:36.690Z,24.02
2022-08-05T21:15:44.532Z,23.99
2022-08-05T21:18:53.136Z,24.04
2022-08-05T21:21:55.036Z,23.96
2022-08-05T21:24:57.314Z,24.05
2022-08-05T21:27:59.272Z,23.96
2022-08-05T21:31:01.355Z,23.93
2022-08-05T21:34:03.237Z,23.83
2022-08-05T21:37:05.320Z,23.85
2022-08-05T21:40:07.442Z,23.78
2022-08-05T21:43:17.873Z,23.87
2022-08-05T21:46:26.576Z,23.67
2022-08-05T21:49:48.095Z,23.39
2022-08-05T21:52:53.519Z,23.10
2022-08-05T21:56:05.097Z,22.95
2022-08-05T21:59:22.531Z,22.90
2022-08-05T22:02:27.009Z,22.83
2022-08-05T22:05:29.066Z,22.76
2022-08-05T22:08:52.163Z,22.71
2022-08-05T22:11:54.665Z,22.69
2022-08-05T22:14:58.826Z,22.62
2022-08-05T22:18:01.896Z,22.61
2022-08-05T22:21:04.719Z,22.59
2022-08-05T22:24:40.621Z,22.59
2022-08-05T22:28:09.109Z,22.52
2022-08-05T22:31:13.473Z,22.52
2022-08-05T22:34:25.699Z,22.52
2022-08-05T22:37:59.264Z,22.49
2022-08-05T22:40:54.854Z,22.43
2022-08-05T22:43:59.356Z,22.42
2022-08-05T22:47:01.309Z,22.39
2022-08-05T22:50:20.000Z,22.39
2022-08-05T22:53:24.638Z,22.34
2022-08-05T22:56:40.047Z,22.33
2022-08-05T22:59:50.337Z,22.32
2022-08-05T23:02:56.332Z,22.29
2022-08-05T23:06:00.043Z,22.30
2022-08-05T23:09:27.254Z,22.31
2022-08-05T23:12:25.334Z,22.30
2022-08-05T23:15:35.405Z,22.32
2022-08-05T23:18:38.565Z,22.33
2022-08-05T23:21:42.967Z,22.31
2022-08-05T23:24:51.381Z,22.34
2022-08-05T23:28:00.171Z,22.37
2022-08-05T23:31:16.444Z,22.35
2022-08-05T23:34:24.493Z,22.32
2022-08-05T23:37:27.002Z,22.29
2022-08-05T23:40:38.693Z,22.27
2022-08-05T23:44:05.906Z,22.29
2022-08-05T23:47:15.034Z,22.30
2022-08-05T23:50:20.210Z,22.33
2022-08-05T23:53:23.218Z,22.34
2022-08-05T23:56:30.237Z,22.29
